createdAt,value
2018-04-19T00:00:28.259Z,10.66
2018-04-19T00:01:28.294Z,10.59
2018-04-19T00:02:28.330Z,10.64
2018-04-19T00:03:28.474Z,10.63
2018-04-19T00:04:28.400Z,10.59
2018-04-19T00:05:28.435Z,10.67
2018-04-19T00:06:28.470Z,10.63
2018-04-19T00:07:28.512Z,10.63
2018-04-19T00:08:28.542Z,10.63
2018-04-19T00:09:28.577Z,10.60
2018-04-19T00:10:28.615Z,10.68
2018-04-19T00:11:28.651Z,10.59
2018-04-19T00:12:28.684Z,10.61
2018-04-19T00:13:28.720Z,10.66
2018-04-19T00:14:28.756Z,10.61
2018-04-19T00:15:28.791Z,10.52
2018-04-19T00:16:28.825Z,10.52
2018-04-19T00:17:28.860Z,10.61
2018-04-19T00:18:28.896Z,10.52
2018-04-19T00:19:28.931Z,10.47
2018-04-19T00:20:28.966Z,10.40
2018-04-19T00:21:29.001Z,10.42
2018-04-19T00:22:29.040Z,10.42
2018-04-19T00:23:29.072Z,10.33
2018-04-19T00:24:29.111Z,10.34
2018-04-19T00:25:29.140Z,10.27
2018-04-19T00:26:29.179Z,10.26
2018-04-19T00:27:29.212Z,10.18
2018-04-19T00:28:29.249Z,10.20
2018-04-19T00:29:29.281Z,10.22
2018-04-19T00:30:29.318Z,10.22
2018-04-19T00:31:29.359Z,10.20
2018-04-19T00:32:29.388Z,10.17
2018-04-19T00:33:29.423Z,10.23
2018-04-19T00:34:29.499Z,10.20
2018-04-19T00:35:29.495Z,10.12
2018-04-19T00:36:29.529Z,10.23
2018-04-19T00:37:29.568Z,10.25
2018-04-19T00:38:29.600Z,10.09
2018-04-19T00:39:29.639Z,10.05
2018-04-19T00:40:29.670Z,10.18
2018-04-19T00:41:29.706Z,10.08
2018-04-19T00:42:29.744Z,10.09
2018-04-19T00:43:29.776Z,10.07
2018-04-19T00:44:29.813Z,10.07
2018-04-19T00:45:29.848Z,10.08
2018-04-19T00:46:29.884Z,9.99
2018-04-19T00:47:29.918Z,9.97
2018-04-19T00:48:29.954Z,10.02
2018-04-19T00:49:29.988Z,9.97
2018-04-19T00:50:30.025Z,9.97
2018-04-19T00:51:30.069Z,9.91
2018-04-19T00:52:30.095Z,9.89
2018-04-19T00:53:30.128Z,9.86
2018-04-19T00:54:30.164Z,9.84
2018-04-19T00:55:30.197Z,9.86
2018-04-19T00:56:30.234Z,9.79
2018-04-19T00:57:30.268Z,9.74
2018-04-19T00:58:30.306Z,9.84
2018-04-19T00:59:30.341Z,9.76
2018-04-19T01:00:30.373Z,9.81
2018-04-19T01:01:30.406Z,9.78
2018-04-19T01:02:30.442Z,9.72
2018-04-19T01:03:30.477Z,9.78
2018-04-19T01:04:30.512Z,9.74
2018-04-19T01:05:30.548Z,9.61
2018-04-19T01:06:30.583Z,9.68
2018-04-19T01:07:30.632Z,9.72
2018-04-19T01:08:30.656Z,9.61
2018-04-19T01:09:30.687Z,9.66
2018-04-19T01:10:30.721Z,9.64
2018-04-19T01:11:30.758Z,9.65
2018-04-19T01:12:30.793Z,9.66
2018-04-19T01:13:30.826Z,9.65
2018-04-19T01:14:30.864Z,9.65
2018-04-19T01:15:30.897Z,9.64
2018-04-19T01:16:30.933Z,9.65
2018-04-19T01:17:30.967Z,9.72
2018-04-19T01:18:31.001Z,9.60
2018-04-19T01:19:31.036Z,9.66
2018-04-19T01:20:31.073Z,9.69
2018-04-19T01:21:31.105Z,9.60
2018-04-19T01:22:31.141Z,9.57
2018-04-19T01:23:31.176Z,9.61
2018-04-19T01:24:31.213Z,9.69
2018-04-19T01:25:31.247Z,9.60
2018-04-19T01:26:31.282Z,9.51
2018-04-19T01:27:31.320Z,9.54
2018-04-19T01:28:31.352Z,9.56
2018-04-19T01:29:31.389Z,9.53
2018-04-19T01:30:31.424Z,9.57
2018-04-19T01:31:31.456Z,9.51
2018-04-19T01:32:31.491Z,9.51
2018-04-19T01:33:31.531Z,9.57
2018-04-19T01:34:31.564Z,9.58
2018-04-19T01:35:31.605Z,9.64
2018-04-19T01:36:31.632Z,9.69
2018-04-19T01:37:31.663Z,9.61
2018-04-19T01:38:31.711Z,9.64
2018-04-19T01:39:31.734Z,9.60
2018-04-19T01:40:31.771Z,9.53
2018-04-19T01:41:31.801Z,9.54
2018-04-19T01:42:31.837Z,9.53
2018-04-19T01:43:31.874Z,9.54
2018-04-19T01:44:31.908Z,9.56
2018-04-19T01:45:31.942Z,9.48
2018-04-19T01:46:31.979Z,9.53
2018-04-19T01:47:32.010Z,9.40
2018-04-19T01:48:32.046Z,9.36
2018-04-19T01:49:32.080Z,9.40
2018-04-19T01:50:32.126Z,9.33
2018-04-19T01:51:32.151Z,9.36
2018-04-19T01:52:32.188Z,9.28
2018-04-19T01:53:32.221Z,9.20
2018-04-19T01:54:32.261Z,9.23
2018-04-19T01:55:32.289Z,9.32
2018-04-19T01:56:32.327Z,9.26
2018-04-19T01:57:32.358Z,9.28
2018-04-19T01:58:32.393Z,9.20
2018-04-19T01:59:32.427Z,9.21
2018-04-19T02:00:32.463Z,9.13
2018-04-19T02:01:32.504Z,9.18
2018-04-19T02:02:32.531Z,9.15
2018-04-19T02:03:32.568Z,9.13
2018-04-19T02:04:32.602Z,9.17
2018-04-19T02:05:32.637Z,9.17
2018-04-19T02:06:32.672Z,9.11
2018-04-19T02:07:32.704Z,9.14
2018-04-19T02:08:32.740Z,9.14
2018-04-19T02:09:32.774Z,9.15
2018-04-19T02:10:32.815Z,9.21
2018-04-19T02:11:32.843Z,9.23
2018-04-19T02:12:32.877Z,9.18
2018-04-19T02:13:32.912Z,9.17
2018-04-19T02:14:32.946Z,9.15
2018-04-19T02:15:32.982Z,9.11
2018-04-19T02:16:33.015Z,9.08
2018-04-19T02:17:33.051Z,9.08
2018-04-19T02:18:33.088Z,8.99
2018-04-19T02:19:33.119Z,8.99
2018-04-19T02:20:33.155Z,9.11
2018-04-19T02:21:33.189Z,9.05
2018-04-19T02:22:33.226Z,9.10
2018-04-19T02:23:33.256Z,8.95
2018-04-19T02:24:33.292Z,9.01
2018-04-19T02:25:33.327Z,8.89
2018-04-19T02:26:33.360Z,8.91
2018-04-19T02:27:33.396Z,8.94
2018-04-19T02:28:33.432Z,8.91
2018-04-19T02:29:33.467Z,8.96
2018-04-19T02:30:33.499Z,8.86
2018-04-19T02:31:33.534Z,8.99
2018-04-19T02:32:33.570Z,8.95
2018-04-19T02:33:33.602Z,8.98
2018-04-19T02:34:33.637Z,8.95
2018-04-19T02:35:33.671Z,8.89
2018-04-19T02:36:33.704Z,8.91
2018-04-19T02:37:33.740Z,8.92
2018-04-19T02:38:33.774Z,8.91
2018-04-19T02:39:33.810Z,8.91
2018-04-19T02:40:33.842Z,8.87
2018-04-19T02:41:33.876Z,8.95
2018-04-19T02:42:33.913Z,8.94
2018-04-19T02:43:33.945Z,8.99
2018-04-19T02:44:33.979Z,8.94
2018-04-19T02:45:34.015Z,8.95
2018-04-19T02:46:34.055Z,8.89
2018-04-19T02:47:34.081Z,8.96
2018-04-19T02:48:34.167Z,8.98
2018-04-19T02:49:34.149Z,8.96
2018-04-19T02:50:34.211Z,8.95
2018-04-19T02:51:34.218Z,8.94
2018-04-19T02:52:34.255Z,8.84
2018-04-19T02:53:34.287Z,8.96
2018-04-19T02:54:34.321Z,8.94
2018-04-19T02:55:34.358Z,8.91
2018-04-19T02:56:34.392Z,8.95
2018-04-19T02:57:34.424Z,8.96
2018-04-19T02:58:34.457Z,8.98
2018-04-19T02:59:34.494Z,8.98
2018-04-19T03:00:34.527Z,9.05
2018-04-19T03:01:34.565Z,8.99
2018-04-19T03:02:34.599Z,8.99
2018-04-19T03:03:34.629Z,8.87
2018-04-19T03:04:34.664Z,8.87
2018-04-19T03:05:34.698Z,8.98
2018-04-19T03:06:34.733Z,8.98
2018-04-19T03:07:34.768Z,8.91
2018-04-19T03:08:34.800Z,8.95
2018-04-19T03:09:34.840Z,8.94
2018-04-19T03:10:34.869Z,8.84
2018-04-19T03:11:34.902Z,8.83
2018-04-19T03:12:34.938Z,8.94
2018-04-19T03:13:34.972Z,8.86
2018-04-19T03:14:35.007Z,8.83
2018-04-19T03:15:35.040Z,8.81
2018-04-19T03:16:35.072Z,8.73
2018-04-19T03:17:35.106Z,8.77
2018-04-19T03:18:35.139Z,8.71
2018-04-19T03:19:35.173Z,8.73
2018-04-19T03:20:35.208Z,8.68
2018-04-19T03:21:35.248Z,8.65
2018-04-19T03:22:35.277Z,8.65
2018-04-19T03:23:35.310Z,8.62
2018-04-19T03:24:35.345Z,8.62
2018-04-19T03:25:35.379Z,8.62
2018-04-19T03:26:35.413Z,8.48
2018-04-19T03:27:35.448Z,8.58
2018-04-19T03:28:35.480Z,8.50
2018-04-19T03:29:35.514Z,8.45
2018-04-19T03:30:35.548Z,8.41
2018-04-19T03:31:35.583Z,8.43
2018-04-19T03:32:35.617Z,8.36
2018-04-19T03:33:35.650Z,8.40
2018-04-19T03:34:35.684Z,8.44
2018-04-19T03:35:35.719Z,8.44
2018-04-19T03:36:35.759Z,8.52
2018-04-19T03:37:35.785Z,8.53
2018-04-19T03:38:35.881Z,8.47
2018-04-19T03:39:35.854Z,8.50
2018-04-19T03:40:35.888Z,8.48
2018-04-19T03:41:35.931Z,8.65
2018-04-19T03:42:35.957Z,8.63
2018-04-19T03:43:35.993Z,8.59
2018-04-19T03:44:36.024Z,8.63
2018-04-19T03:45:36.059Z,8.58
2018-04-19T03:46:36.092Z,8.45
2018-04-19T03:47:36.125Z,8.44
2018-04-19T03:48:36.206Z,8.37
2018-04-19T03:49:36.194Z,8.33
2018-04-19T03:50:36.234Z,8.33
2018-04-19T03:51:36.262Z,8.33
2018-04-19T03:52:36.298Z,8.22
2018-04-19T03:53:36.328Z,8.26
2018-04-19T03:54:36.362Z,8.22
2018-04-19T03:55:36.397Z,8.23
2018-04-19T03:56:36.430Z,8.11
2018-04-19T03:57:36.475Z,8.19
2018-04-19T03:58:36.496Z,8.20
2018-04-19T03:59:36.530Z,8.18
2018-04-19T04:00:36.564Z,8.19
2018-04-19T04:01:36.599Z,8.16
2018-04-19T04:02:36.633Z,8.22
2018-04-19T04:03:36.668Z,8.12
2018-04-19T04:04:36.705Z,8.05
2018-04-19T04:05:36.732Z,8.12
2018-04-19T04:06:36.767Z,8.16
2018-04-19T04:07:36.800Z,8.08
2018-04-19T04:08:36.838Z,8.11
2018-04-19T04:09:36.869Z,8.16
2018-04-19T04:10:36.902Z,8.07
2018-04-19T04:11:36.952Z,8.01
2018-04-19T04:12:36.970Z,8.15
2018-04-19T04:13:37.003Z,8.08
2018-04-19T04:14:37.036Z,8.20
2018-04-19T04:15:37.071Z,8.10
2018-04-19T04:16:37.105Z,8.10
2018-04-19T04:17:37.143Z,8.15
2018-04-19T04:18:37.172Z,8.10
2018-04-19T04:19:37.207Z,8.00
2018-04-19T04:20:37.239Z,7.95
2018-04-19T04:21:37.272Z,7.93
2018-04-19T04:22:37.313Z,8.05
2018-04-19T04:23:37.340Z,8.04
2018-04-19T04:24:37.375Z,8.07
2018-04-19T04:25:37.409Z,8.05
2018-04-19T04:26:37.444Z,8.01
2018-04-19T04:27:37.474Z,7.90
2018-04-19T04:28:37.508Z,8.05
2018-04-19T04:29:37.545Z,8.02
2018-04-19T04:30:37.577Z,7.93
2018-04-19T04:31:37.609Z,7.98
2018-04-19T04:32:37.642Z,8.01
2018-04-19T04:33:37.675Z,8.04
2018-04-19T04:34:37.712Z,8.07
2018-04-19T04:35:37.743Z,8.07
2018-04-19T04:36:37.777Z,8.04
2018-04-19T04:37:37.809Z,8.11
2018-04-19T04:38:37.843Z,8.12
2018-04-19T04:39:37.878Z,8.12
2018-04-19T04:40:37.912Z,8.16
2018-04-19T04:41:37.944Z,8.16
2018-04-19T04:42:37.982Z,8.11
2018-04-19T04:43:38.013Z,8.18
2018-04-19T04:44:38.048Z,8.05
2018-04-19T04:45:38.085Z,8.05
2018-04-19T04:46:38.113Z,7.97
2018-04-19T04:47:38.147Z,7.98
2018-04-19T04:48:38.180Z,7.98
2018-04-19T04:49:38.213Z,8.00
2018-04-19T04:50:38.348Z,8.00
2018-04-19T04:51:38.280Z,8.02
2018-04-19T04:52:38.326Z,7.90
2018-04-19T04:53:38.348Z,8.01
2018-04-19T04:54:38.381Z,8.02
2018-04-19T04:55:38.419Z,8.01
2018-04-19T04:56:38.456Z,8.11
2018-04-19T04:57:38.483Z,8.04
2018-04-19T04:58:38.515Z,8.11
2018-04-19T04:59:38.550Z,8.11
2018-04-19T05:00:38.592Z,8.01
2018-04-19T05:01:38.616Z,8.02
2018-04-19T05:02:38.651Z,8.02
2018-04-19T05:03:38.688Z,8.00
2018-04-19T05:04:38.719Z,8.02
2018-04-19T05:05:38.760Z,8.01
2018-04-19T05:06:38.785Z,8.08
2018-04-19T05:07:38.827Z,8.11
2018-04-19T05:08:38.852Z,8.15
2018-04-19T05:09:38.888Z,8.25
2018-04-19T05:10:38.919Z,8.18
2018-04-19T05:11:38.952Z,8.28
2018-04-19T05:12:38.998Z,8.28
2018-04-19T05:13:39.020Z,8.23
2018-04-19T05:14:39.053Z,8.26
2018-04-19T05:15:39.087Z,8.25
2018-04-19T05:16:39.124Z,8.43
2018-04-19T05:17:39.155Z,8.36
2018-04-19T05:18:39.190Z,8.44
2018-04-19T05:19:39.222Z,8.41
2018-04-19T05:20:39.257Z,8.44
2018-04-19T05:21:39.296Z,8.50
2018-04-19T05:22:39.324Z,8.52
2018-04-19T05:23:39.358Z,8.50
2018-04-19T05:24:39.396Z,8.61
2018-04-19T05:25:39.425Z,8.62
2018-04-19T05:26:39.458Z,8.56
2018-04-19T05:27:39.492Z,8.66
2018-04-19T05:28:39.527Z,8.65
2018-04-19T05:29:39.559Z,8.63
2018-04-19T05:30:39.593Z,8.68
2018-04-19T05:31:39.637Z,8.73
2018-04-19T05:32:39.662Z,8.84
2018-04-19T05:33:39.696Z,8.87
2018-04-19T05:34:39.731Z,8.84
2018-04-19T05:35:39.767Z,8.76
2018-04-19T05:36:39.797Z,8.81
2018-04-19T05:37:39.833Z,8.98
2018-04-19T05:38:39.867Z,8.99
2018-04-19T05:39:39.900Z,8.98
2018-04-19T05:40:39.932Z,9.01
2018-04-19T05:41:39.966Z,9.02
2018-04-19T05:42:40.010Z,9.08
2018-04-19T05:43:40.034Z,9.13
2018-04-19T05:44:40.068Z,9.20
2018-04-19T05:45:40.102Z,9.21
2018-04-19T05:46:40.134Z,9.21
2018-04-19T05:47:40.172Z,9.24
2018-04-19T05:48:40.204Z,9.21
2018-04-19T05:49:40.237Z,9.24
2018-04-19T05:50:40.273Z,9.39
2018-04-19T05:51:40.308Z,9.36
2018-04-19T05:52:40.345Z,9.42
2018-04-19T05:53:40.373Z,9.48
2018-04-19T05:54:40.414Z,9.57
2018-04-19T05:55:40.444Z,9.56
2018-04-19T05:56:40.476Z,9.54
2018-04-19T05:57:40.511Z,9.60
2018-04-19T05:58:40.547Z,9.58
2018-04-19T05:59:40.581Z,9.72
2018-04-19T06:00:40.623Z,9.75
2018-04-19T06:01:40.649Z,9.84
2018-04-19T06:02:40.683Z,9.90
2018-04-19T06:03:40.728Z,9.90
2018-04-19T06:04:40.752Z,9.94
2018-04-19T06:05:40.787Z,9.90
2018-04-19T06:06:40.825Z,10.01
2018-04-19T06:07:40.862Z,10.08
2018-04-19T06:08:40.903Z,10.12
2018-04-19T06:09:40.931Z,10.23
2018-04-19T06:10:40.963Z,10.29
2018-04-19T06:11:40.996Z,10.32
2018-04-19T06:12:41.030Z,10.38
2018-04-19T06:13:41.063Z,10.59
2018-04-19T06:14:41.098Z,10.64
2018-04-19T06:15:41.138Z,10.60
2018-04-19T06:16:41.167Z,10.73
2018-04-19T06:17:41.203Z,10.78
2018-04-19T06:18:41.236Z,10.79
2018-04-19T06:19:41.370Z,10.79
2018-04-19T06:20:41.305Z,10.89
2018-04-19T06:21:41.341Z,10.92
2018-04-19T06:22:41.377Z,10.99
2018-04-19T06:23:41.412Z,11.02
2018-04-19T06:24:41.459Z,11.10
2018-04-19T06:25:41.484Z,11.11
2018-04-19T06:26:41.518Z,11.04
2018-04-19T06:31:10.551Z,11.54
2018-04-19T06:32:10.587Z,11.54
2018-04-19T06:33:10.622Z,11.62
2018-04-19T06:34:10.665Z,11.75
2018-04-19T06:35:10.693Z,11.72
2018-04-19T06:36:10.775Z,11.79
2018-04-19T06:37:10.779Z,11.83
2018-04-19T06:38:10.799Z,11.91
2018-04-19T06:39:10.833Z,11.86
2018-04-19T06:40:10.869Z,12.02
2018-04-19T06:41:10.907Z,12.04
2018-04-19T06:42:10.942Z,12.16
2018-04-19T06:43:10.977Z,12.23
2018-04-19T06:44:11.013Z,12.35
2018-04-19T06:45:11.050Z,12.37
2018-04-19T06:46:11.083Z,12.45
2018-04-19T06:47:11.121Z,12.54
2018-04-19T06:48:11.154Z,12.57
2018-04-19T06:49:11.194Z,12.60
2018-04-19T06:50:11.229Z,12.72
2018-04-19T06:51:11.263Z,12.75
2018-04-19T06:52:11.299Z,12.86
2018-04-19T06:53:11.334Z,12.93
2018-04-19T06:54:11.372Z,12.95
2018-04-19T06:55:11.407Z,13.04
2018-04-19T06:56:11.443Z,13.11
2018-04-19T06:57:11.480Z,13.23
2018-04-19T06:58:11.516Z,13.22
2018-04-19T06:59:11.558Z,13.36
2018-04-19T07:00:11.597Z,13.38
2018-04-19T07:01:11.626Z,13.39
2018-04-19T07:02:11.662Z,13.42
2018-04-19T07:03:11.707Z,13.42
2018-04-19T07:04:11.734Z,13.54
2018-04-19T07:05:11.771Z,13.62
2018-04-19T07:06:11.809Z,13.69
2018-04-19T07:07:11.852Z,13.77
2018-04-19T07:08:11.881Z,13.70
2018-04-19T07:09:11.918Z,13.85
2018-04-19T07:10:11.956Z,13.89
2018-04-19T07:11:11.991Z,13.95
2018-04-19T07:12:12.036Z,14.07
2018-04-19T07:13:12.065Z,14.17
2018-04-19T07:14:12.100Z,14.18
2018-04-19T07:15:12.137Z,14.28
2018-04-19T07:16:12.179Z,14.37
2018-04-19T07:17:12.212Z,14.42
2018-04-19T07:18:12.249Z,14.50
2018-04-19T07:19:12.284Z,14.57
2018-04-19T07:20:12.323Z,14.73
2018-04-19T07:21:12.359Z,14.75
2018-04-19T07:22:12.406Z,14.89
2018-04-19T07:23:12.432Z,14.89
2018-04-19T07:24:12.471Z,14.96
2018-04-19T07:25:12.510Z,15.03
2018-04-19T07:26:12.545Z,15.07
2018-04-19T07:27:12.583Z,15.13
2018-04-19T07:28:12.622Z,15.13
2018-04-19T07:29:12.657Z,15.17
2018-04-19T07:30:12.694Z,15.16
2018-04-19T07:31:12.738Z,15.27
2018-04-19T07:32:12.775Z,15.29
2018-04-19T07:33:12.806Z,15.29
2018-04-19T07:34:12.846Z,15.38
2018-04-19T07:35:12.880Z,15.36
2018-04-19T07:36:12.919Z,15.39
2018-04-19T07:37:12.957Z,15.44
2018-04-19T07:38:12.994Z,15.51
2018-04-19T07:39:13.031Z,15.54
2018-04-19T07:40:13.087Z,15.51
2018-04-19T07:41:13.109Z,15.57
2018-04-19T07:42:13.145Z,15.68
2018-04-19T07:43:13.183Z,15.60
2018-04-19T07:44:13.220Z,15.76
2018-04-19T07:45:13.262Z,15.86
2018-04-19T07:46:13.299Z,15.89
2018-04-19T07:47:13.341Z,15.94
2018-04-19T07:48:13.376Z,15.92
2018-04-19T07:49:13.410Z,16.00
2018-04-19T07:50:13.449Z,16.01
2018-04-19T07:51:13.486Z,15.96
2018-04-19T07:52:13.525Z,16.05
2018-04-19T07:53:13.561Z,16.09
2018-04-19T07:54:13.600Z,16.12
2018-04-19T07:55:13.637Z,16.11
2018-04-19T07:56:13.677Z,16.14
2018-04-19T07:57:13.715Z,16.27
2018-04-19T07:58:13.752Z,16.34
2018-04-19T07:59:13.796Z,16.42
2018-04-19T08:00:13.828Z,16.50
2018-04-19T08:01:13.875Z,16.45
2018-04-19T08:02:13.910Z,16.52
2018-04-19T08:03:13.944Z,16.52
2018-04-19T08:04:13.984Z,16.56
2018-04-19T08:05:14.071Z,16.63
2018-04-19T08:06:14.065Z,16.70
2018-04-19T08:07:14.099Z,16.71
2018-04-19T08:08:14.140Z,16.85
2018-04-19T08:09:14.179Z,16.88
2018-04-19T08:10:14.214Z,16.97
2018-04-19T08:11:14.302Z,16.98
2018-04-19T08:12:14.299Z,16.98
2018-04-19T08:13:14.331Z,17.04
2018-04-19T08:14:14.372Z,17.12
2018-04-19T08:15:14.437Z,17.15
2018-04-19T08:16:14.446Z,17.19
2018-04-19T08:17:14.486Z,17.14
2018-04-19T08:18:14.525Z,17.28
2018-04-19T08:19:14.564Z,17.28
2018-04-19T08:20:14.605Z,17.48
2018-04-19T08:21:14.648Z,17.41
2018-04-19T08:22:14.681Z,17.63
2018-04-19T08:23:14.717Z,17.56
2018-04-19T08:24:14.758Z,17.78
2018-04-19T08:25:14.799Z,17.84
2018-04-19T08:26:14.842Z,17.95
2018-04-19T08:27:14.875Z,18.00
2018-04-19T08:28:14.913Z,18.00
2018-04-19T08:29:14.953Z,18.23
2018-04-19T08:30:14.993Z,18.11
2018-04-19T08:31:15.047Z,18.25
2018-04-19T08:32:15.069Z,18.30
2018-04-19T08:33:15.113Z,18.55
2018-04-19T08:34:15.152Z,18.54
2018-04-19T08:35:15.196Z,18.72
2018-04-19T08:36:15.227Z,18.72
2018-04-19T08:37:15.271Z,18.87
2018-04-19T08:38:15.307Z,18.81
2018-04-19T08:39:15.348Z,18.88
2018-04-19T08:40:15.384Z,18.87
2018-04-19T08:41:15.425Z,18.88
2018-04-19T08:42:15.465Z,18.92
2018-04-19T08:43:15.512Z,18.99
2018-04-19T08:44:15.542Z,18.98
2018-04-19T08:45:15.584Z,18.98
2018-04-19T08:46:15.629Z,18.99
2018-04-19T08:47:15.661Z,19.07
2018-04-19T08:48:15.702Z,19.06
2018-04-19T08:49:15.741Z,19.13
2018-04-19T08:50:15.798Z,19.11
2018-04-19T08:51:15.821Z,19.13
2018-04-19T08:52:15.866Z,19.16
2018-04-19T08:53:15.903Z,19.19
2018-04-19T08:54:15.940Z,19.40
2018-04-19T08:55:15.984Z,19.50
2018-04-19T08:56:16.022Z,19.73
2018-04-19T08:57:16.061Z,19.87
2018-04-19T08:58:16.100Z,20.14
2018-04-19T08:59:16.143Z,20.21
2018-04-19T09:00:16.179Z,20.35
2018-04-19T09:01:16.219Z,20.41
2018-04-19T09:02:16.259Z,20.43
2018-04-19T09:03:16.302Z,20.43
2018-04-19T09:04:16.340Z,20.38
2018-04-19T09:05:16.383Z,20.41
2018-04-19T09:06:16.423Z,20.39
2018-04-19T09:07:16.463Z,20.43
2018-04-19T09:08:16.501Z,20.42
2018-04-19T09:09:16.642Z,20.43
2018-04-19T09:10:16.596Z,20.61
2018-04-19T09:11:16.624Z,20.51
2018-04-19T09:12:16.665Z,20.59
2018-04-19T09:13:16.704Z,20.72
2018-04-19T09:14:16.750Z,20.80
2018-04-19T09:15:16.788Z,20.92
2018-04-19T09:16:16.828Z,21.06
2018-04-19T09:17:16.872Z,20.98
2018-04-19T09:18:16.915Z,21.13
2018-04-19T09:19:16.950Z,21.29
2018-04-19T09:20:16.990Z,21.38
2018-04-19T09:21:17.031Z,21.42
2018-04-19T09:22:17.075Z,21.53
2018-04-19T09:23:17.113Z,21.62
2018-04-19T09:24:17.161Z,21.61
2018-04-19T09:25:17.196Z,21.67
2018-04-19T09:26:17.234Z,21.61
2018-04-19T09:27:17.277Z,21.67
2018-04-19T09:28:17.316Z,21.74
2018-04-19T09:29:17.367Z,21.69
2018-04-19T09:30:17.399Z,21.71
2018-04-19T09:31:17.439Z,21.74
2018-04-19T09:32:17.481Z,21.82
2018-04-19T09:33:17.540Z,21.80
2018-04-19T09:34:17.563Z,21.92
2018-04-19T09:35:17.603Z,21.86
2018-04-19T09:36:17.645Z,21.80
2018-04-19T09:37:17.687Z,21.79
2018-04-19T09:38:17.728Z,21.82
2018-04-19T09:39:17.768Z,21.77
2018-04-19T09:40:17.818Z,21.79
2018-04-19T09:41:17.852Z,21.90
2018-04-19T09:42:17.895Z,21.96
2018-04-19T09:43:17.936Z,21.92
2018-04-19T09:44:17.977Z,22.02
2018-04-19T09:45:18.019Z,22.15
2018-04-19T09:46:18.062Z,22.22
2018-04-19T09:47:18.101Z,22.25
2018-04-19T09:48:18.144Z,22.20
2018-04-19T09:49:18.185Z,22.37
2018-04-19T09:50:18.228Z,22.40
2018-04-19T09:51:18.269Z,22.57
2018-04-19T09:52:18.310Z,22.68
2018-04-19T09:53:18.352Z,22.79
2018-04-19T09:54:18.395Z,22.86
2018-04-19T09:55:18.435Z,22.91
2018-04-19T09:56:18.527Z,22.92
2018-04-19T09:57:18.518Z,23.04
2018-04-19T09:58:18.561Z,22.98
2018-04-19T09:59:18.599Z,22.91
2018-04-19T10:00:18.646Z,22.92
2018-04-19T10:01:18.697Z,22.94
2018-04-19T10:02:18.733Z,22.90
2018-04-19T10:03:18.768Z,22.95
2018-04-19T10:04:18.811Z,22.94
2018-04-19T10:05:18.859Z,22.92
2018-04-19T10:06:18.896Z,22.94
2018-04-19T10:07:18.940Z,22.97
2018-04-19T10:08:18.979Z,23.09
2018-04-19T10:09:19.023Z,22.98
2018-04-19T10:10:19.073Z,22.95
2018-04-19T10:11:19.105Z,23.05
2018-04-19T10:12:19.156Z,23.12
2018-04-19T10:13:19.192Z,23.10
2018-04-19T10:14:19.246Z,23.09
2018-04-19T10:15:19.276Z,23.25
2018-04-19T10:16:19.323Z,23.20
2018-04-19T10:17:19.359Z,23.27
2018-04-19T10:18:19.404Z,23.27
2018-04-19T10:19:19.445Z,23.15
2018-04-19T10:20:19.488Z,23.25
2018-04-19T10:21:19.567Z,23.36
2018-04-19T10:22:19.573Z,23.27
2018-04-19T10:23:19.616Z,23.20
2018-04-19T10:24:19.657Z,23.27
2018-04-19T10:25:19.702Z,23.23
2018-04-19T10:26:19.739Z,23.16
2018-04-19T10:27:19.836Z,23.25
2018-04-19T10:28:19.826Z,23.31
2018-04-19T10:29:19.869Z,23.38
2018-04-19T10:30:19.912Z,23.43
2018-04-19T10:31:19.956Z,23.47
2018-04-19T10:32:19.998Z,23.58
2018-04-19T10:33:20.040Z,23.63
2018-04-19T10:34:20.085Z,23.70
2018-04-19T10:35:20.124Z,23.65
2018-04-19T10:36:20.166Z,23.69
2018-04-19T10:37:20.221Z,23.75
2018-04-19T10:38:20.254Z,23.78
2018-04-19T10:39:20.343Z,23.88
2018-04-19T10:40:20.338Z,23.94
2018-04-19T10:41:20.381Z,24.02
2018-04-19T10:42:20.424Z,23.95
2018-04-19T10:43:20.467Z,23.94
2018-04-19T10:44:20.513Z,24.03
2018-04-19T10:45:20.553Z,24.06
2018-04-19T10:46:20.596Z,23.90
2018-04-19T10:47:20.644Z,23.94
2018-04-19T10:48:20.682Z,23.95
2018-04-19T10:49:20.730Z,24.03
2018-04-19T10:50:20.767Z,23.98
2018-04-19T10:51:20.807Z,24.06
2018-04-19T10:52:20.850Z,24.06
2018-04-19T10:53:20.895Z,24.06
2018-04-19T10:54:20.952Z,23.95
2018-04-19T10:55:20.978Z,24.03
2018-04-19T10:56:21.024Z,24.00
2018-04-19T10:57:21.065Z,24.10
2018-04-19T10:58:21.110Z,24.06
2018-04-19T10:59:21.153Z,24.08
2018-04-19T11:00:21.195Z,24.10
2018-04-19T11:01:21.249Z,24.20
2018-04-19T11:02:21.287Z,24.20
2018-04-19T11:03:21.324Z,24.21
2018-04-19T11:04:21.367Z,24.18
2018-04-19T11:05:21.411Z,24.25
2018-04-19T11:06:21.453Z,24.30
2018-04-19T11:07:21.496Z,24.30
2018-04-19T11:08:21.539Z,24.32
2018-04-19T11:09:21.593Z,24.24
2018-04-19T11:10:21.634Z,24.31
2018-04-19T11:11:21.675Z,24.24
2018-04-19T11:12:21.718Z,24.28
2018-04-19T11:13:21.756Z,24.25
2018-04-19T11:14:21.803Z,24.24
2018-04-19T11:15:21.846Z,24.30
2018-04-19T11:16:21.884Z,24.39
2018-04-19T11:17:21.928Z,24.47
2018-04-19T11:18:21.972Z,24.46
2018-04-19T11:19:22.013Z,24.57
2018-04-19T11:20:22.056Z,24.57
2018-04-19T11:21:22.101Z,24.49
2018-04-19T11:22:22.149Z,24.58
2018-04-19T11:23:22.186Z,24.55
2018-04-19T11:24:22.232Z,24.57
2018-04-19T11:25:22.273Z,24.52
2018-04-19T11:26:22.318Z,24.61
2018-04-19T11:27:22.365Z,24.58
2018-04-19T11:28:22.411Z,24.52
2018-04-19T11:29:22.453Z,24.55
2018-04-19T11:30:22.496Z,24.58
2018-04-19T11:31:22.533Z,24.68
2018-04-19T11:32:22.578Z,24.62
2018-04-19T11:33:22.627Z,24.62
2018-04-19T11:34:22.665Z,24.60
2018-04-19T11:35:22.716Z,24.69
2018-04-19T11:36:22.752Z,24.71
2018-04-19T11:37:22.796Z,24.71
2018-04-19T11:38:22.841Z,24.76
2018-04-19T11:39:22.883Z,24.67
2018-04-19T11:40:22.928Z,24.68
2018-04-19T11:41:22.969Z,24.58
2018-04-19T11:42:23.015Z,24.62
2018-04-19T11:43:23.056Z,24.61
2018-04-19T11:44:23.106Z,24.62
2018-04-19T11:45:23.144Z,24.81
2018-04-19T11:46:23.195Z,24.96
2018-04-19T11:47:23.231Z,25.08
2018-04-19T11:48:23.276Z,25.10
2018-04-19T11:49:23.318Z,25.10
2018-04-19T11:50:23.361Z,25.18
2018-04-19T11:51:23.406Z,25.27
2018-04-19T11:52:23.458Z,25.17
2018-04-19T11:53:23.498Z,25.20
2018-04-19T11:54:23.539Z,25.23
2018-04-19T11:55:23.595Z,25.23
2018-04-19T11:56:23.626Z,25.24
2018-04-19T11:57:23.670Z,25.50
2018-04-19T11:58:23.715Z,25.54
2018-04-19T11:59:23.758Z,25.50
2018-04-19T12:00:23.801Z,25.51
2018-04-19T12:01:23.846Z,25.54
2018-04-19T12:02:23.890Z,25.57
2018-04-19T12:03:23.933Z,25.54
2018-04-19T12:04:23.978Z,25.50
2018-04-19T12:05:24.023Z,25.54
2018-04-19T12:06:24.065Z,25.46
2018-04-19T12:07:24.116Z,25.51
2018-04-19T12:08:24.161Z,25.42
2018-04-19T12:09:24.198Z,25.39
2018-04-19T12:10:24.241Z,25.47
2018-04-19T12:11:24.284Z,25.50
2018-04-19T12:12:24.342Z,25.36
2018-04-19T12:13:24.373Z,25.50
2018-04-19T12:14:24.416Z,25.55
2018-04-19T12:15:24.460Z,25.62
2018-04-19T12:16:24.504Z,25.70
2018-04-19T12:17:24.556Z,25.73
2018-04-19T12:18:24.596Z,25.76
2018-04-19T12:19:24.638Z,25.75
2018-04-19T12:20:24.698Z,25.73
2018-04-19T12:21:24.775Z,25.65
2018-04-19T12:22:24.769Z,25.64
2018-04-19T12:23:24.817Z,25.58
2018-04-19T12:24:24.861Z,25.62
2018-04-19T12:25:24.908Z,25.70
2018-04-19T12:26:24.949Z,25.60
2018-04-19T12:27:24.990Z,25.62
2018-04-19T12:28:25.035Z,25.61
2018-04-19T12:29:25.078Z,25.70
2018-04-19T12:30:25.121Z,25.70
2018-04-19T12:31:25.168Z,25.75
2018-04-19T12:32:25.220Z,25.75
2018-04-19T12:33:25.256Z,25.75
2018-04-19T12:34:25.303Z,25.80
2018-04-19T12:35:25.343Z,25.80
2018-04-19T12:36:25.390Z,25.77
2018-04-19T12:37:25.458Z,25.85
2018-04-19T12:38:25.478Z,25.88
2018-04-19T12:39:25.538Z,25.90
2018-04-19T12:40:25.565Z,25.91
2018-04-19T12:41:25.614Z,25.88
2018-04-19T12:42:25.661Z,25.90
2018-04-19T12:43:25.749Z,25.90
2018-04-19T12:44:25.743Z,25.88
2018-04-19T12:45:25.786Z,25.80
2018-04-19T12:46:25.833Z,25.87
2018-04-19T12:47:25.875Z,25.87
2018-04-19T12:48:25.920Z,25.87
2018-04-19T12:49:25.965Z,25.94
2018-04-19T12:50:26.010Z,26.12
2018-04-19T12:51:26.055Z,26.18
2018-04-19T12:52:26.100Z,26.23
2018-04-19T12:53:26.164Z,26.15
2018-04-19T12:54:26.188Z,26.26
2018-04-19T12:55:26.237Z,26.29
2018-04-19T12:56:26.287Z,26.39
2018-04-19T12:57:26.321Z,26.36
2018-04-19T12:58:26.369Z,26.35
2018-04-19T12:59:26.414Z,26.35
2018-04-19T13:00:26.461Z,26.43
2018-04-19T13:01:26.498Z,26.51
2018-04-19T13:02:26.544Z,26.43
2018-04-19T13:03:26.597Z,26.50
2018-04-19T13:04:26.631Z,26.39
2018-04-19T13:05:26.677Z,26.44
2018-04-19T13:06:26.743Z,26.45